Time;durP1;ratioP1;P1;durP2;ratioP2;P2;SDS_P1;SDS_P2;PMS_P1;PMS_P2;Temp;Humidity;BMP_temperature;BMP_pressure;BME280_temperature;BME280_humidity;BME280_pressure;Samples;Min_cycle;Max_cycle;Signal;HPM_P1;HPM_P2
2022/05/09 00:03:28;;;;;;;7.33;3.30;;;8.60;99.90;;;;;;8325486;28;20189;-77
2022/05/09 00:07:28;;;;;;;5.73;3.90;;;8.50;99.90;;;;;;8330080;28;20238;-78
2022/05/09 00:11:30;;;;;;;4.17;3.33;;;8.40;99.90;;;;;;8321210;28;20182;-77
2022/05/09 00:15:30;;;;;;;4.03;3.10;;;8.20;99.90;;;;;;8321825;28;20209;-77
2022/05/09 00:19:31;;;;;;;3.50;3.20;;;8.10;99.90;;;;;;8324046;28;20182;-79
2022/05/09 00:23:33;;;;;;;3.67;3.37;;;7.90;99.90;;;;;;8325036;28;20224;-77
2022/05/09 00:27:34;;;;;;;4.00;3.60;;;7.80;99.90;;;;;;8343741;28;20294;-79
2022/05/09 00:31:35;;;;;;;4.40;3.33;;;7.80;99.90;;;;;;8341907;28;20190;-79
2022/05/09 00:35:37;;;;;;;5.63;3.63;;;7.70;99.90;;;;;;8329208;28;20187;-78
2022/05/09 00:39:38;;;;;;;6.33;3.77;;;7.60;99.90;;;;;;8322136;28;20205;-79
2022/05/09 00:43:40;;;;;;;6.30;3.93;;;7.50;99.90;;;;;;8316873;28;20359;-78
2022/05/09 00:47:41;;;;;;;6.30;3.37;;;7.50;99.90;;;;;;8326098;28;20220;-77
2022/05/09 00:51:55;;;;;;;7.33;3.77;;;7.40;99.90;;;;;;8326020;28;20277;-77
2022/05/09 00:56:00;;;;;;;7.70;3.93;;;7.30;99.90;;;;;;8319227;28;20231;-79
2022/05/09 01:00:07;;;;;;;5.97;3.60;;;7.20;99.90;;;;;;8342273;28;20208;-78
2022/05/09 01:04:12;;;;;;;7.20;3.77;;;7.20;99.90;;;;;;8322861;28;20267;-77
2022/05/09 01:08:13;;;;;;;5.80;3.80;;;7.20;99.90;;;;;;8328775;28;20300;-78
2022/05/09 01:12:29;;;;;;;4.70;3.23;;;7.20;99.90;;;;;;8322184;28;20186;-77
2022/05/09 01:16:32;;;;;;;7.27;4.23;;;7.20;99.90;;;;;;8318230;28;20217;-78
2022/05/09 01:20:33;;;;;;;5.07;3.33;;;7.30;99.90;;;;;;8323831;28;20187;-77
2022/05/09 01:24:34;;;;;;;4.13;3.03;;;7.20;99.90;;;;;;8326194;28;20228;-79
2022/05/09 01:28:35;;;;;;;4.13;3.40;;;7.10;99.90;;;;;;8328518;28;20210;-79
2022/05/09 01:32:48;;;;;;;5.40;3.43;;;7.00;99.90;;;;;;8330512;28;20182;-79
2022/05/09 01:36:54;;;;;;;5.77;2.80;;;7.00;99.90;;;;;;8330621;28;20240;-79
2022/05/09 01:40:55;;;;;;;5.13;3.40;;;6.90;99.90;;;;;;8325627;28;20197;-79
2022/05/09 01:44:56;;;;;;;4.77;3.73;;;6.80;99.90;;;;;;8325992;28;20228;-78
2022/05/09 01:53:17;;;;;;;5.17;3.13;;;6.60;99.90;;;;;;8340890;28;20185;-79
2022/05/09 01:57:20;;;;;;;5.77;3.03;;;6.60;99.90;;;;;;8329475;28;20616;-79
2022/05/09 02:01:23;;;;;;;4.60;3.43;;;6.40;99.90;;;;;;8333902;28;20482;-79
2022/05/09 02:05:24;;;;;;;4.03;3.13;;;6.40;99.90;;;;;;8327885;28;20194;-79
2022/05/09 02:09:25;;;;;;;6.17;3.37;;;6.30;99.90;;;;;;8335866;28;20205;-79
2022/05/09 02:13:26;;;;;;;6.43;3.30;;;6.20;99.90;;;;;;8328168;28;20204;-79
2022/05/09 02:17:29;;;;;;;5.33;2.97;;;6.10;99.90;;;;;;8335843;28;20190;-79
2022/05/09 02:21:30;;;;;;;4.00;2.80;;;6.10;99.90;;;;;;8326934;28;20190;-79
2022/05/09 02:25:31;;;;;;;4.70;2.90;;;6.00;99.90;;;;;;8331119;28;20202;-79
2022/05/09 02:29:32;;;;;;;5.70;3.40;;;5.90;99.90;;;;;;8327214;28;20181;-79
2022/05/09 02:33:33;;;;;;;5.47;3.13;;;5.90;99.90;;;;;;8331227;28;20209;-79
2022/05/09 02:37:34;;;;;;;4.83;3.20;;;5.80;99.90;;;;;;8341940;28;20189;-79
2022/05/09 02:41:35;;;;;;;3.30;2.53;;;5.80;99.90;;;;;;8339444;28;20214;-79
2022/05/09 02:45:35;;;;;;;5.77;2.97;;;5.70;99.90;;;;;;8333778;28;20189;-79
2022/05/09 02:49:36;;;;;;;7.87;3.07;;;5.70;99.90;;;;;;8327344;28;20181;-79
2022/05/09 02:53:37;;;;;;;6.10;3.40;;;5.70;99.90;;;;;;8329058;28;20186;-79
2022/05/09 02:57:40;;;;;;;5.77;3.53;;;5.70;99.90;;;;;;8334287;28;20217;-79
2022/05/09 03:01:41;;;;;;;4.90;3.17;;;5.70;99.90;;;;;;8326225;28;20328;-80
2022/05/09 03:05:43;;;;;;;7.60;3.83;;;5.70;99.90;;;;;;8328014;28;20210;-79
2022/05/09 03:09:47;;;;;;;6.97;3.30;;;5.70;99.90;;;;;;8332538;28;20193;-77
2022/05/09 03:13:48;;;;;;;5.40;2.97;;;5.60;99.90;;;;;;8321023;28;20605;-78
2022/05/09 03:17:48;;;;;;;4.97;2.77;;;5.60;99.90;;;;;;8326395;28;20194;-79
2022/05/09 03:21:50;;;;;;;8.17;3.50;;;5.50;99.90;;;;;;8326726;28;20219;-79
2022/05/09 03:25:50;;;;;;;5.93;3.23;;;5.40;99.90;;;;;;8340678;28;20222;-79
2022/05/09 03:29:51;;;;;;;4.40;2.93;;;5.40;99.90;;;;;;8333085;28;20312;-77
2022/05/09 03:33:52;;;;;;;6.23;3.50;;;5.50;99.90;;;;;;8330781;28;20274;-78
2022/05/09 03:37:53;;;;;;;5.20;2.90;;;5.50;99.90;;;;;;8329587;28;20189;-76
2022/05/09 03:41:54;;;;;;;4.13;2.60;;;5.60;99.90;;;;;;8332322;28;20248;-77
2022/05/09 03:45:56;;;;;;;5.10;2.70;;;5.60;99.90;;;;;;8328281;28;20206;-79
2022/05/09 03:49:57;;;;;;;5.27;2.67;;;5.70;99.90;;;;;;8324246;28;20184;-81
2022/05/09 03:53:58;;;;;;;4.50;2.90;;;5.70;99.90;;;;;;8326527;28;20182;-78
2022/05/09 03:57:58;;;;;;;6.53;3.83;;;6.00;99.90;;;;;;8329785;28;20185;-76
2022/05/09 04:01:59;;;;;;;6.80;3.80;;;6.70;99.90;;;;;;8339404;28;20185;-81
2022/05/09 04:06:00;;;;;;;6.03;3.40;;;7.70;63.30;;;;;;8329779;28;20220;-77
2022/05/09 04:10:03;;;;;;;7.57;3.77;;;8.50;96.90;;;;;;8338821;28;20181;-77
2022/05/09 04:14:03;;;;;;;6.40;3.53;;;9.30;99.90;;;;;;8327548;28;20186;-76
2022/05/09 04:18:06;;;;;;;5.77;3.93;;;10.00;99.90;;;;;;8327535;28;20198;-77
2022/05/09 04:22:07;;;;;;;7.43;4.20;;;10.70;1.00;;;;;;8326369;28;20221;-81
2022/05/09 04:26:10;;;;;;;7.93;4.60;;;11.30;1.00;;;;;;8329660;28;20220;-77
2022/05/09 04:30:11;;;;;;;6.43;3.53;;;11.60;99.90;;;;;;8332612;28;20436;-78
2022/05/09 04:34:12;;;;;;;10.53;4.97;;;11.50;99.90;;;;;;8329136;28;20192;-78
2022/05/09 04:38:22;;;;;;;16.63;7.37;;;11.00;99.90;;;;;;8328923;28;20187;-78
2022/05/09 04:42:23;;;;;;;12.57;6.47;;;10.70;1.00;;;;;;8322201;28;20501;-79
2022/05/09 04:46:24;;;;;;;9.23;5.40;;;11.10;1.00;;;;;;8325010;28;20212;-77
2022/05/09 04:50:28;;;;;;;9.87;6.13;;;11.30;1.00;;;;;;8328680;28;20202;-78
2022/05/09 04:54:29;;;;;;;12.93;6.40;;;11.60;99.90;;;;;;8321452;28;20185;-77
2022/05/09 04:58:30;;;;;;;11.70;8.00;;;12.10;99.90;;;;;;8329393;28;20189;-76
2022/05/09 05:02:31;;;;;;;12.03;5.97;;;12.40;24.80;;;;;;8321551;28;20186;-81
2022/05/09 05:06:32;;;;;;;16.37;4.97;;;12.10;99.90;;;;;;8325912;28;20209;-81
2022/05/09 05:10:33;;;;;;;9.10;4.90;;;11.80;99.90;;;;;;8338110;28;20197;-80
2022/05/09 05:14:34;;;;;;;10.27;5.57;;;11.60;99.90;;;;;;8323998;28;20279;-77
2022/05/09 05:18:35;;;;;;;8.17;4.20;;;11.50;99.90;;;;;;8339103;28;20219;-77
2022/05/09 05:22:40;;;;;;;11.97;4.07;;;11.30;99.90;;;;;;8321790;28;20187;-78
2022/05/09 05:26:41;;;;;;;12.60;4.77;;;11.20;99.90;;;;;;8312344;28;20213;-78
2022/05/09 05:30:43;;;;;;;7.63;4.27;;;11.00;99.90;;;;;;8338234;28;20193;-81
2022/05/09 05:34:43;;;;;;;8.37;4.43;;;11.00;99.90;;;;;;8327285;28;20187;-77
2022/05/09 05:38:46;;;;;;;8.57;4.70;;;11.00;99.90;;;;;;8350573;28;20310;-75
2022/05/09 05:42:52;;;;;;;10.87;6.33;;;11.10;1.00;;;;;;8336727;28;20186;-76
2022/05/09 05:46:53;;;;;;;14.43;5.03;;;11.10;1.00;;;;;;8343692;28;20290;-81
2022/05/09 05:50:53;;;;;;;7.53;4.50;;;11.20;1.00;;;;;;8328295;28;20183;-77
2022/05/09 05:54:54;;;;;;;7.53;3.57;;;11.20;1.00;;;;;;8328277;28;20187;-75
2022/05/09 05:58:55;;;;;;;6.57;3.70;;;11.30;1.00;;;;;;8353145;28;20187;-81
2022/05/09 06:02:56;;;;;;;8.07;3.87;;;11.50;1.00;;;;;;8326632;28;20191;-76
2022/05/09 06:06:57;;;;;;;6.97;4.40;;;11.70;99.90;;;;;;8332425;28;20208;-77
2022/05/09 06:10:57;;;;;;;10.10;3.90;;;11.90;99.90;;;;;;8333290;28;20190;-76
2022/05/09 06:19:17;;;;;;;11.80;4.67;;;12.10;99.90;;;;;;8346866;28;20204;-81
2022/05/09 06:23:18;;;;;;;7.43;4.10;;;12.20;99.90;;;;;;8351817;28;20224;-76
2022/05/09 06:27:19;;;;;;;6.10;4.07;;;12.30;99.90;;;;;;8336799;28;20225;-76
2022/05/09 06:31:20;;;;;;;7.17;3.83;;;12.50;99.90;;;;;;8325990;28;20258;-79
2022/05/09 06:35:24;;;;;;;7.30;3.90;;;12.60;99.90;;;;;;8331349;28;20186;-77
2022/05/09 06:39:27;;;;;;;11.03;4.13;;;12.70;99.90;;;;;;8313823;28;20251;-80
2022/05/09 06:43:30;;;;;;;9.53;4.20;;;12.90;44.50;;;;;;8328576;28;20186;-77
2022/05/09 06:47:31;;;;;;;8.73;4.43;;;13.10;56.70;;;;;;8346258;28;20202;-80
2022/05/09 06:51:31;;;;;;;9.20;3.63;;;13.20;1.00;;;;;;8329003;28;20182;-78
2022/05/09 06:55:32;;;;;;;10.00;3.80;;;13.40;1.00;;;;;;8332548;28;20190;-77
2022/05/09 06:59:34;;;;;;;8.27;3.40;;;13.40;1.00;;;;;;8327373;28;20186;-76
2022/05/09 07:03:34;;;;;;;5.47;3.60;;;13.60;1.00;;;;;;8333426;28;20185;-77
2022/05/09 07:07:36;;;;;;;8.63;4.33;;;13.80;1.00;;;;;;8331638;28;20222;-77
2022/05/09 07:11:37;;;;;;;5.80;3.60;;;13.90;1.00;;;;;;8333732;28;20181;-80
2022/05/09 07:15:38;;;;;;;7.27;4.13;;;13.90;1.00;;;;;;8332017;28;20182;-80
2022/05/09 07:19:39;;;;;;;8.00;4.70;;;14.10;1.00;;;;;;8316506;28;20187;-76
2022/05/09 07:23:40;;;;;;;9.53;3.93;;;14.30;1.00;;;;;;8324424;28;20183;-79
2022/05/09 07:27:42;;;;;;;5.53;3.27;;;14.40;1.00;;;;;;8334628;28;20213;-78
2022/05/09 07:31:43;;;;;;;9.77;4.17;;;14.40;1.00;;;;;;8338892;28;20262;-80
2022/05/09 07:35:44;;;;;;;9.13;3.93;;;14.50;99.90;;;;;;8325470;28;20202;-78
2022/05/09 07:39:45;;;;;;;6.60;4.23;;;14.60;99.90;;;;;;8324839;28;20211;-76
2022/05/09 07:43:46;;;;;;;7.97;3.80;;;14.60;1.00;;;;;;8318874;28;20426;-76
2022/05/09 07:47:47;;;;;;;11.70;5.17;;;14.70;99.90;;;;;;8330805;28;20248;-78
2022/05/09 07:51:48;;;;;;;6.83;4.03;;;14.90;99.90;;;;;;8328897;28;20185;-79
2022/05/09 07:55:49;;;;;;;9.90;4.63;;;14.90;99.90;;;;;;8324932;28;20188;-77
2022/05/09 07:59:50;;;;;;;7.07;3.70;;;15.10;99.90;;;;;;8326399;28;20276;-79
2022/05/09 08:03:51;;;;;;;5.63;3.70;;;15.30;99.90;;;;;;8331455;28;20182;-77
2022/05/09 08:07:51;;;;;;;9.13;4.00;;;15.40;99.90;;;;;;8337328;28;20205;-77
2022/05/09 08:11:53;;;;;;;7.20;3.97;;;15.60;99.90;;;;;;8332074;28;20218;-76
2022/05/09 08:15:54;;;;;;;7.40;3.83;;;15.90;99.90;;;;;;8320681;28;20182;-80
2022/05/09 08:19:55;;;;;;;9.83;4.20;;;16.10;99.90;;;;;;8322793;28;20256;-77
2022/05/09 08:23:57;;;;;;;8.80;3.87;;;16.20;99.90;;;;;;8326519;28;20277;-79
2022/05/09 08:27:57;;;;;;;7.43;3.50;;;16.30;99.90;;;;;;8327454;28;20209;-77
2022/05/09 08:31:58;;;;;;;8.43;3.80;;;16.40;99.90;;;;;;8339723;28;20186;-77
2022/05/09 08:36:02;;;;;;;6.07;3.20;;;16.50;99.90;;;;;;8341891;28;20182;-79
2022/05/09 08:40:04;;;;;;;8.03;3.83;;;16.30;99.90;;;;;;8323506;28;20202;-78
2022/05/09 08:44:43;;;;;;;10.53;3.77;;;16.30;99.90;;;;;;8320384;28;20261;-77
2022/05/09 08:48:55;;;;;;;7.90;3.67;;;16.50;99.90;;;;;;8323172;28;20205;-77
2022/05/09 08:53:06;;;;;;;10.03;4.70;;;16.80;99.90;;;;;;8332221;28;20181;-77
2022/05/09 08:57:24;;;;;;;7.57;3.60;;;16.80;99.90;;;;;;8329228;28;20197;-77
2022/05/09 09:01:27;;;;;;;8.60;4.37;;;17.00;99.90;;;;;;8343306;28;20185;-77
2022/05/09 09:05:32;;;;;;;8.60;3.60;;;17.10;99.90;;;;;;8326934;28;20182;-77
2022/05/09 09:10:15;;;;;;;11.57;4.43;;;17.30;99.90;;;;;;8327354;28;20205;-78
2022/05/09 09:14:34;;;;;;;4.47;2.77;;;17.60;99.90;;;;;;8317141;28;20212;-76
2022/05/09 09:18:55;;;;;;;7.37;2.97;;;17.90;99.90;;;;;;8325110;28;20247;-77
2022/05/09 09:23:34;;;;;;;6.90;3.30;;;17.90;99.90;;;;;;8323984;28;20192;-77
2022/05/09 09:27:53;;;;;;;7.37;2.93;;;18.00;99.90;;;;;;8339564;28;20210;-79
2022/05/09 09:32:07;;;;;;;6.30;3.03;;;18.10;94.20;;;;;;8318254;28;20204;-78
2022/05/09 09:36:14;;;;;;;5.50;3.73;;;18.30;59.10;;;;;;8325635;28;20273;-80
2022/05/09 09:40:16;;;;;;;5.17;2.90;;;18.40;71.60;;;;;;8338173;28;20212;-80
2022/05/09 09:44:21;;;;;;;6.43;2.70;;;18.60;86.80;;;;;;8336420;28;20620;-77
2022/05/09 09:48:23;;;;;;;4.60;2.43;;;18.80;14.70;;;;;;8316914;28;20253;-77
2022/05/09 09:52:40;;;;;;;6.20;3.43;;;18.90;13.40;;;;;;8347600;28;20193;-77
2022/05/09 09:56:42;;;;;;;6.33;2.70;;;19.00;1.00;;;;;;8328675;28;20309;-79
2022/05/09 10:00:43;;;;;;;6.63;3.23;;;19.00;1.00;;;;;;8325704;28;20193;-80
2022/05/09 10:04:44;;;;;;;6.07;3.07;;;19.00;1.00;;;;;;8339787;28;20197;-80
2022/05/09 10:08:45;;;;;;;7.20;3.10;;;19.10;28.90;;;;;;8322575;28;20214;-79
2022/05/09 10:12:52;;;;;;;7.90;3.07;;;19.10;1.00;;;;;;8321055;28;20209;-81
2022/05/09 10:16:55;;;;;;;7.10;3.00;;;19.10;5.00;;;;;;8318686;28;20186;-78
2022/05/09 10:20:59;;;;;;;4.23;3.13;;;19.40;1.00;;;;;;8328319;28;20193;-78
2022/05/09 10:25:22;;;;;;;4.57;3.13;;;19.80;1.00;;;;;;8320578;28;20580;-77
2022/05/09 10:29:27;;;;;;;4.87;2.53;;;20.00;1.00;;;;;;8338236;28;20206;-80
2022/05/09 10:33:31;;;;;;;7.60;3.00;;;20.20;1.00;;;;;;8326642;28;20186;-78
2022/05/09 10:37:48;;;;;;;5.87;3.47;;;20.60;1.00;;;;;;8331238;28;20209;-79
2022/05/09 10:41:53;;;;;;;7.67;3.70;;;20.90;1.00;;;;;;8341043;28;20203;-80
2022/05/09 10:45:54;;;;;;;7.73;2.40;;;20.90;1.00;;;;;;8327560;28;20205;-77
2022/05/09 10:50:17;;;;;;;6.30;2.67;;;20.90;1.00;;;;;;8327101;28;20272;-80
2022/05/09 10:55:00;;;;;;;5.17;2.50;;;20.90;1.00;;;;;;8325900;28;20181;-77
2022/05/09 10:59:24;;;;;;;3.80;2.10;;;20.70;1.00;;;;;;8324370;28;20186;-80
2022/05/09 11:03:37;;;;;;;4.03;2.23;;;21.00;1.00;;;;;;8328308;28;20182;-81
2022/05/09 11:08:19;;;;;;;5.80;2.30;;;21.50;1.00;;;;;;8343799;28;20213;-81
2022/05/09 11:12:57;;;;;;;4.73;2.00;;;21.70;1.00;;;;;;8206468;28;20181;-78
2022/05/09 11:17:01;;;;;;;4.23;1.97;;;21.50;1.00;;;;;;8282099;28;20190;-78
2022/05/09 11:21:31;;;;;;;4.90;2.10;;;21.50;1.00;;;;;;8326656;28;20186;-80
2022/05/09 11:25:57;;;;;;;7.90;2.10;;;21.70;1.00;;;;;;8329390;28;20205;-81
2022/05/09 11:30:27;;;;;;;4.20;1.90;;;21.80;1.00;;;;;;8332162;28;20284;-78
2022/05/09 11:34:58;;;;;;;2.77;1.50;;;21.90;1.00;;;;;;8333407;28;20189;-81
2022/05/09 11:39:09;;;;;;;5.37;2.20;;;21.80;1.00;;;;;;8323472;28;20202;-77
2022/05/09 11:43:43;;;;;;;4.87;1.97;;;21.80;1.00;;;;;;8347574;28;20190;-81
2022/05/09 11:48:23;;;;;;;7.13;2.27;;;21.70;1.00;;;;;;8331326;28;20210;-78
2022/05/09 11:52:39;;;;;;;5.37;2.30;;;21.40;1.00;;;;;;8315051;28;20225;-77
2022/05/09 11:56:48;;;;;;;4.93;2.10;;;21.50;1.00;;;;;;8320517;28;20229;-79
2022/05/09 12:00:51;;;;;;;4.83;2.50;;;21.60;1.00;;;;;;8325830;28;20193;-78
2022/05/09 12:04:52;;;;;;;6.33;1.83;;;21.40;1.00;;;;;;8327412;28;20236;-79
2022/05/09 12:08:55;;;;;;;4.00;1.90;;;21.00;1.00;;;;;;8332807;28;20238;-80
2022/05/09 12:13:04;;;;;;;3.47;2.23;;;21.10;1.00;;;;;;8324719;28;20481;-79
2022/05/09 12:17:21;;;;;;;4.67;1.93;;;21.20;1.00;;;;;;8329311;28;20179;-78
2022/05/09 12:21:24;;;;;;;3.53;2.17;;;21.40;1.00;;;;;;8330924;28;20193;-78
2022/05/09 12:25:41;;;;;;;4.07;2.07;;;21.60;1.00;;;;;;8323883;28;20199;-77
2022/05/09 12:29:49;;;;;;;4.73;2.23;;;21.70;1.00;;;;;;8325559;28;20653;-77
2022/05/09 12:33:52;;;;;;;4.30;2.60;;;21.70;1.00;;;;;;8319845;28;20178;-78
2022/05/09 12:37:54;;;;;;;4.83;2.37;;;21.70;1.00;;;;;;8314766;28;20267;-77
2022/05/09 12:41:58;;;;;;;6.90;2.20;;;21.70;1.00;;;;;;8324409;28;20229;-78
2022/05/09 12:46:01;;;;;;;6.63;2.43;;;21.70;1.00;;;;;;8324252;28;20209;-80
2022/05/09 12:50:07;;;;;;;4.67;2.40;;;21.70;1.00;;;;;;8326809;28;20190;-77
2022/05/09 12:54:11;;;;;;;5.27;2.17;;;21.60;1.00;;;;;;8328965;28;20273;-77
2022/05/09 12:58:46;;;;;;;4.87;2.23;;;21.60;1.00;;;;;;8329546;28;20189;-79
2022/05/09 13:02:47;;;;;;;4.80;2.30;;;21.50;1.00;;;;;;8286968;28;20206;-81
2022/05/09 13:06:52;;;;;;;3.77;2.37;;;21.50;1.00;;;;;;8345233;28;20213;-79
2022/05/09 13:10:57;;;;;;;5.70;2.60;;;21.40;1.00;;;;;;8327625;28;20182;-79
2022/05/09 13:15:25;;;;;;;5.17;2.60;;;21.20;1.00;;;;;;8340358;28;20229;-83
2022/05/09 13:19:26;;;;;;;4.87;2.43;;;21.10;1.00;;;;;;8324703;28;20652;-77
2022/05/09 13:23:34;;;;;;;5.60;2.00;;;21.10;1.00;;;;;;8318418;28;20776;-79
2022/05/09 13:27:36;;;;;;;2.93;2.23;;;21.20;1.00;;;;;;8329511;28;20525;-81
2022/05/09 13:31:43;;;;;;;5.43;2.30;;;21.40;1.00;;;;;;8336437;28;20187;-81
2022/05/09 13:35:49;;;;;;;5.87;2.50;;;21.60;1.00;;;;;;8329755;28;20181;-78
2022/05/09 13:39:50;;;;;;;3.73;2.27;;;21.60;1.00;;;;;;8321744;28;20336;-79
2022/05/09 13:43:58;;;;;;;5.67;2.40;;;21.60;1.00;;;;;;8329933;28;20187;-77
2022/05/09 13:48:05;;;;;;;5.70;2.27;;;21.40;1.00;;;;;;8327177;28;20213;-78
2022/05/09 13:52:12;;;;;;;5.90;2.27;;;21.30;1.00;;;;;;8324233;28;20188;-78
2022/05/09 13:56:15;;;;;;;4.80;2.37;;;21.30;1.00;;;;;;8334519;28;20190;-77
2022/05/09 14:00:20;;;;;;;4.67;2.33;;;21.30;1.00;;;;;;8333147;28;20217;-82
2022/05/09 14:04:23;;;;;;;3.10;2.37;;;21.30;1.00;;;;;;8329816;28;20285;-77
2022/05/09 14:08:27;;;;;;;2.97;2.03;;;21.30;1.00;;;;;;8325525;28;20233;-79
2022/05/09 14:12:27;;;;;;;4.53;2.10;;;21.40;1.00;;;;;;8331008;28;20273;-78
2022/05/09 14:16:36;;;;;;;7.27;2.50;;;21.40;1.00;;;;;;8342280;28;20190;-81
2022/05/09 14:20:40;;;;;;;4.63;2.20;;;21.30;1.00;;;;;;8325727;28;20206;-77
2022/05/09 14:33:39;;;;;;;4.13;2.20;;;21.40;1.00;;;;;;8321919;28;20205;-79
2022/05/09 14:37:47;;;;;;;5.93;2.70;;;21.40;1.00;;;;;;8336702;28;20202;-82
2022/05/09 14:41:49;;;;;;;5.17;1.87;;;21.40;1.00;;;;;;8333789;28;20500;-82
2022/05/09 14:46:02;;;;;;;22.67;12.73;;;21.40;1.00;;;;;;8328430;28;20251;-78
2022/05/09 14:50:31;;;;;;;6.93;3.27;;;21.40;1.00;;;;;;8348124;28;20182;-78
2022/05/09 14:54:44;;;;;;;6.83;2.80;;;21.40;1.00;;;;;;8329473;28;20186;-78
2022/05/09 14:59:11;;;;;;;3.77;2.33;;;21.30;1.00;;;;;;8323494;28;20210;-77
2022/05/09 15:03:19;;;;;;;5.87;2.47;;;21.20;1.00;;;;;;8326296;28;20344;-77
2022/05/09 15:07:20;;;;;;;4.10;2.40;;;21.20;1.00;;;;;;8328184;28;20220;-77
2022/05/09 15:11:27;;;;;;;5.37;2.77;;;21.20;1.00;;;;;;8329294;28;20190;-80
2022/05/09 15:15:29;;;;;;;5.33;2.60;;;20.90;1.00;;;;;;8311582;28;20186;-77
2022/05/09 15:19:30;;;;;;;5.33;2.07;;;20.80;1.00;;;;;;8330582;28;20289;-77
2022/05/09 15:23:32;;;;;;;4.73;2.50;;;20.80;1.00;;;;;;8331060;28;20187;-79
2022/05/09 15:27:33;;;;;;;6.80;2.40;;;20.70;1.00;;;;;;8324913;28;20218;-77
2022/05/09 15:31:34;;;;;;;3.90;1.90;;;20.70;1.00;;;;;;8334200;28;20188;-78
2022/05/09 15:35:35;;;;;;;6.03;2.37;;;20.80;1.00;;;;;;8348131;28;20261;-77
2022/05/09 15:39:41;;;;;;;4.00;2.37;;;20.80;1.00;;;;;;8336004;28;20229;-82
2022/05/09 15:43:48;;;;;;;5.90;2.00;;;20.80;1.00;;;;;;8326009;28;20194;-77
2022/05/09 15:47:51;;;;;;;5.57;2.53;;;20.80;1.00;;;;;;8328879;28;20277;-78
2022/05/09 15:51:52;;;;;;;7.10;2.23;;;20.70;1.00;;;;;;8323341;28;20210;-76
2022/05/09 15:56:00;;;;;;;4.23;2.30;;;20.80;1.00;;;;;;8329075;28;20309;-77
2022/05/09 16:00:05;;;;;;;5.97;2.50;;;20.80;1.00;;;;;;8325261;28;20257;-78
2022/05/09 16:04:07;;;;;;;3.93;2.27;;;20.70;1.00;;;;;;8331518;28;20193;-77
2022/05/09 16:12:30;;;;;;;2.70;2.03;;;20.60;1.00;;;;;;8347660;28;20274;-81
2022/05/09 16:16:44;;;;;;;4.57;2.03;;;20.50;1.00;;;;;;8309405;28;20194;-76
2022/05/09 16:20:45;;;;;;;5.20;2.00;;;20.50;1.00;;;;;;8326770;28;20189;-79
2022/05/09 16:24:48;;;;;;;4.50;2.00;;;20.50;1.00;;;;;;8323790;28;20515;-80
2022/05/09 16:28:49;;;;;;;3.97;2.27;;;20.50;1.00;;;;;;8325914;28;20209;-79
2022/05/09 16:32:50;;;;;;;4.20;1.80;;;20.40;1.00;;;;;;8334050;28;20178;-77
2022/05/09 16:37:07;;;;;;;6.53;2.27;;;20.40;1.00;;;;;;8327293;28;20209;-78
2022/05/09 16:41:10;;;;;;;3.03;1.70;;;20.30;1.00;;;;;;8323164;28;20206;-80
2022/05/09 16:45:18;;;;;;;4.10;2.00;;;20.30;1.00;;;;;;8329632;28;20179;-78
2022/05/09 16:49:19;;;;;;;3.70;2.10;;;20.20;1.00;;;;;;8327749;28;20214;-82
2022/05/09 16:53:19;;;;;;;4.87;2.27;;;20.20;1.00;;;;;;8341517;28;20178;-79
2022/05/09 16:57:23;;;;;;;14.83;6.37;;;20.10;1.00;;;;;;8331381;28;20197;-81
2022/05/09 17:01:23;;;;;;;9.50;5.20;;;20.00;1.00;;;;;;8329132;28;20179;-77
2022/05/09 17:05:24;;;;;;;5.67;3.90;;;20.00;1.00;;;;;;8330343;28;20217;-79
2022/05/09 17:09:25;;;;;;;7.07;3.27;;;19.90;1.00;;;;;;8318266;28;20217;-82
2022/05/09 17:13:27;;;;;;;9.57;4.93;;;19.70;1.00;;;;;;8319880;28;20205;-79
2022/05/09 17:17:41;;;;;;;17.87;7.00;;;19.60;1.00;;;;;;8330781;28;20190;-76
2022/05/09 17:21:43;;;;;;;15.33;6.47;;;19.50;1.00;;;;;;8330932;28;20233;-78
2022/05/09 17:25:45;;;;;;;11.10;5.83;;;19.50;1.00;;;;;;8322420;28;20191;-76
2022/05/09 17:29:46;;;;;;;15.03;6.33;;;19.90;1.00;;;;;;8330932;28;20320;-77
2022/05/09 17:33:47;;;;;;;11.37;6.63;;;20.50;1.00;;;;;;8333699;28;20178;-77
2022/05/09 17:37:47;;;;;;;10.83;4.70;;;20.90;1.00;;;;;;8331422;28;20263;-79
2022/05/09 17:41:48;;;;;;;133.53;48.50;;;21.20;1.00;;;;;;8334643;28;20255;-78
2022/05/09 17:45:50;;;;;;;43.20;14.67;;;21.30;1.00;;;;;;8336095;28;20186;-79
2022/05/09 17:49:52;;;;;;;18.53;8.83;;;21.20;1.00;;;;;;8337236;28;20206;-81
2022/05/09 17:53:53;;;;;;;24.57;11.53;;;21.10;1.00;;;;;;8334952;28;20217;-76
2022/05/09 17:57:54;;;;;;;20.53;12.93;;;20.90;1.00;;;;;;8344749;28;20215;-79
2022/05/09 18:02:00;;;;;;;12.53;5.47;;;20.90;1.00;;;;;;8341782;28;20174;-82
2022/05/09 18:06:01;;;;;;;16.10;6.77;;;20.70;1.00;;;;;;8333162;28;20181;-78
2022/05/09 18:10:03;;;;;;;11.10;5.70;;;20.50;1.00;;;;;;8333616;28;20185;-77
2022/05/09 18:14:05;;;;;;;15.70;8.43;;;20.10;1.00;;;;;;8333310;28;20189;-81
2022/05/09 18:18:13;;;;;;;10.63;5.27;;;19.70;1.00;;;;;;8361043;28;20181;-77
2022/05/09 18:22:15;;;;;;;10.83;5.40;;;19.10;1.00;;;;;;8340253;28;20217;-78
2022/05/09 18:26:15;;;;;;;9.80;5.73;;;18.40;1.00;;;;;;8336768;28;20206;-77
2022/05/09 18:30:17;;;;;;;11.50;5.80;;;17.80;1.00;;;;;;8337765;28;20182;-81
2022/05/09 18:34:31;;;;;;;10.27;4.90;;;17.30;1.00;;;;;;8330685;28;20193;-77
2022/05/09 18:38:35;;;;;;;10.23;4.63;;;16.80;1.00;;;;;;8352377;28;20352;-75
2022/05/09 18:42:38;;;;;;;9.53;5.77;;;16.40;1.00;;;;;;8323443;28;20207;-79
2022/05/09 18:46:41;;;;;;;12.40;7.40;;;16.00;2.70;;;;;;8325222;28;20206;-80
2022/05/09 18:55:07;;;;;;;7.10;4.70;;;15.30;99.90;;;;;;8355273;28;20177;-76
2022/05/09 18:59:08;;;;;;;7.70;3.30;;;14.70;99.90;;;;;;8343156;28;20190;-82
2022/05/09 19:03:09;;;;;;;3.43;2.37;;;14.30;99.90;;;;;;8330376;28;20189;-78
2022/05/09 19:07:11;;;;;;;3.07;2.30;;;13.90;99.90;;;;;;8337862;28;20240;-79
2022/05/09 19:11:18;;;;;;;5.23;2.23;;;13.60;99.90;;;;;;8323434;28;20174;-77
2022/05/09 19:15:20;;;;;;;4.20;2.10;;;13.20;1.00;;;;;;8330545;28;20187;-78
2022/05/09 19:19:21;;;;;;;4.80;2.17;;;12.90;1.00;;;;;;8348415;28;20185;-79
2022/05/09 19:23:22;;;;;;;2.60;2.10;;;12.60;1.00;;;;;;8324421;28;20250;-77
2022/05/09 19:27:24;;;;;;;2.97;2.00;;;12.30;50.30;;;;;;8329531;28;20218;-77
2022/05/09 19:31:30;;;;;;;2.87;2.10;;;12.10;99.90;;;;;;8328544;28;20426;-77
2022/05/09 19:35:31;;;;;;;4.60;1.90;;;11.80;99.90;;;;;;8327771;28;20333;-78
2022/05/09 19:39:32;;;;;;;2.87;2.27;;;11.70;99.90;;;;;;8347716;28;20201;-78
2022/05/09 19:43:35;;;;;;;3.70;2.30;;;11.50;99.90;;;;;;8325262;28;20196;-79
2022/05/09 19:47:36;;;;;;;5.20;3.03;;;11.30;99.90;;;;;;8313238;28;20219;-79
2022/05/09 19:51:37;;;;;;;3.40;2.40;;;11.10;1.00;;;;;;8332992;28;20183;-79
2022/05/09 19:55:37;;;;;;;4.10;2.70;;;10.90;1.00;;;;;;8345297;28;20186;-78
2022/05/09 19:59:39;;;;;;;4.07;2.57;;;10.70;1.00;;;;;;8325797;28;20264;-78
2022/05/09 20:03:41;;;;;;;3.13;2.47;;;10.60;23.80;;;;;;8325858;28;20273;-79
2022/05/09 20:07:42;;;;;;;3.57;2.50;;;10.40;97.70;;;;;;8329723;28;20225;-78
2022/05/09 20:11:43;;;;;;;3.63;2.60;;;10.30;99.90;;;;;;8315640;28;20196;-78
2022/05/09 20:15:44;;;;;;;4.00;2.70;;;10.20;99.90;;;;;;8326995;28;20182;-78
2022/05/09 20:19:46;;;;;;;3.23;2.40;;;10.10;99.90;;;;;;8321720;28;20209;-78
2022/05/09 20:23:53;;;;;;;4.40;2.40;;;10.00;99.90;;;;;;8335926;28;20186;-78
2022/05/09 20:32:13;;;;;;;7.33;3.30;;;9.80;99.90;;;;;;8341448;28;20252;-78
2022/05/09 20:36:22;;;;;;;5.23;3.30;;;9.70;1.00;;;;;;8323035;28;20186;-77
2022/05/09 20:40:29;;;;;;;3.27;2.57;;;9.50;1.00;;;;;;8329769;28;20206;-77
2022/05/09 20:44:30;;;;;;;4.57;2.83;;;9.40;1.00;;;;;;8332363;28;20236;-77
2022/05/09 20:48:33;;;;;;;3.40;2.67;;;9.30;1.00;;;;;;8331423;28;20210;-76
2022/05/09 20:52:35;;;;;;;4.00;2.30;;;9.20;1.00;;;;;;8320865;28;20210;-78
2022/05/09 20:56:36;;;;;;;3.67;2.63;;;9.10;5.30;;;;;;8332288;28;20190;-78
2022/05/09 21:00:37;;;;;;;6.00;2.60;;;9.00;41.00;;;;;;8327646;28;20181;-78
2022/05/09 21:04:40;;;;;;;3.53;2.33;;;8.90;99.90;;;;;;8340264;28;20263;-77
2022/05/09 21:08:41;;;;;;;2.90;2.50;;;8.80;99.90;;;;;;8330246;28;20216;-78
2022/05/09 21:12:42;;;;;;;4.03;2.50;;;8.60;99.90;;;;;;8325861;28;20183;-78
2022/05/09 21:16:43;;;;;;;4.77;3.20;;;8.50;99.90;;;;;;8329249;28;20170;-77
2022/05/09 21:20:44;;;;;;;4.47;2.77;;;8.40;99.90;;;;;;8325853;28;20189;-78
2022/05/09 21:24:46;;;;;;;3.33;2.77;;;8.30;99.90;;;;;;8323180;28;20186;-78
2022/05/09 21:28:47;;;;;;;4.50;3.67;;;8.20;99.90;;;;;;8336751;28;20209;-78
2022/05/09 21:32:48;;;;;;;3.73;2.60;;;8.10;1.00;;;;;;8321404;28;20186;-78
2022/05/09 21:36:49;;;;;;;5.00;2.93;;;8.00;1.00;;;;;;8332251;28;20281;-78
2022/05/09 21:41:05;;;;;;;2.73;2.37;;;7.90;1.00;;;;;;8322853;28;20372;-80
2022/05/09 21:45:07;;;;;;;4.63;2.70;;;7.80;1.00;;;;;;8323689;28;20190;-79
2022/05/09 21:49:08;;;;;;;4.43;2.80;;;7.70;85.40;;;;;;8326697;28;20212;-79
2022/05/09 21:53:10;;;;;;;3.37;2.90;;;7.60;99.90;;;;;;8327755;28;20682;-77
2022/05/09 21:57:15;;;;;;;5.33;3.23;;;7.50;99.90;;;;;;8314453;28;20205;-78